sensor_id;sensor_type;location;lat;lon;timestamp;P1;durP1;ratioP1;P2;durP2;ratioP2
65187;SDS011;51775;51.148;6.950;2022-07-23T00:01:33;4.00;;;2.90;;
65187;SDS011;51775;51.148;6.950;2022-07-23T00:03:58;4.03;;;2.80;;
65187;SDS011;51775;51.148;6.950;2022-07-23T00:06:24;3.70;;;2.80;;
65187;SDS011;51775;51.148;6.950;2022-07-23T00:08:50;3.65;;;2.72;;
65187;SDS011;51775;51.148;6.950;2022-07-23T00:11:16;3.67;;;2.70;;
65187;SDS011;51775;51.148;6.950;2022-07-23T00:13:41;3.88;;;2.80;;
65187;SDS011;51775;51.148;6.950;2022-07-23T00:16:07;3.40;;;2.60;;
65187;SDS011;51775;51.148;6.950;2022-07-23T00:18:32;3.92;;;2.90;;
65187;SDS011;51775;51.148;6.950;2022-07-23T00:20:58;3.20;;;2.60;;
65187;SDS011;51775;51.148;6.950;2022-07-23T00:23:23;4.00;;;2.72;;
65187;SDS011;51775;51.148;6.950;2022-07-23T00:25:48;3.67;;;2.72;;
65187;SDS011;51775;51.148;6.950;2022-07-23T00:28:14;3.72;;;2.70;;
65187;SDS011;51775;51.148;6.950;2022-07-23T00:30:39;4.00;;;2.85;;
65187;SDS011;51775;51.148;6.950;2022-07-23T00:33:05;3.60;;;2.50;;
65187;SDS011;51775;51.148;6.950;2022-07-23T00:35:36;3.92;;;2.83;;
65187;SDS011;51775;51.148;6.950;2022-07-23T00:38:03;3.45;;;2.60;;
65187;SDS011;51775;51.148;6.950;2022-07-23T00:40:29;3.47;;;2.50;;
65187;SDS011;51775;51.148;6.950;2022-07-23T00:42:55;3.30;;;2.60;;
65187;SDS011;51775;51.148;6.950;2022-07-23T00:45:23;3.42;;;2.50;;
65187;SDS011;51775;51.148;6.950;2022-07-23T00:47:48;3.65;;;2.70;;
65187;SDS011;51775;51.148;6.950;2022-07-23T00:50:13;3.80;;;2.67;;
65187;SDS011;51775;51.148;6.950;2022-07-23T00:52:39;3.90;;;2.40;;
65187;SDS011;51775;51.148;6.950;2022-07-23T00:55:06;3.08;;;2.20;;
65187;SDS011;51775;51.148;6.950;2022-07-23T00:57:33;3.72;;;2.67;;
65187;SDS011;51775;51.148;6.950;2022-07-23T00:59:59;3.33;;;2.53;;
65187;SDS011;51775;51.148;6.950;2022-07-23T01:02:25;3.58;;;2.40;;
65187;SDS011;51775;51.148;6.950;2022-07-23T01:04:51;3.22;;;2.30;;
65187;SDS011;51775;51.148;6.950;2022-07-23T01:07:16;3.75;;;2.45;;
65187;SDS011;51775;51.148;6.950;2022-07-23T01:09:43;3.42;;;2.33;;
65187;SDS011;51775;51.148;6.950;2022-07-23T01:12:09;3.20;;;2.55;;
65187;SDS011;51775;51.148;6.950;2022-07-23T01:14:34;3.40;;;2.40;;
65187;SDS011;51775;51.148;6.950;2022-07-23T01:16:59;3.22;;;2.30;;
65187;SDS011;51775;51.148;6.950;2022-07-23T01:19:24;3.47;;;2.50;;
65187;SDS011;51775;51.148;6.950;2022-07-23T01:21:51;3.08;;;2.30;;
65187;SDS011;51775;51.148;6.950;2022-07-23T01:24:18;2.80;;;2.17;;
65187;SDS011;51775;51.148;6.950;2022-07-23T01:26:44;3.65;;;2.50;;
65187;SDS011;51775;51.148;6.950;2022-07-23T01:29:10;3.83;;;2.42;;
65187;SDS011;51775;51.148;6.950;2022-07-23T01:31:35;3.28;;;2.40;;
65187;SDS011;51775;51.148;6.950;2022-07-23T01:34:01;3.10;;;2.28;;
65187;SDS011;51775;51.148;6.950;2022-07-23T01:36:26;3.10;;;2.40;;
65187;SDS011;51775;51.148;6.950;2022-07-23T01:38:52;3.88;;;2.30;;
65187;SDS011;51775;51.148;6.950;2022-07-23T01:41:17;3.45;;;2.38;;
65187;SDS011;51775;51.148;6.950;2022-07-23T01:43:42;3.25;;;2.45;;
65187;SDS011;51775;51.148;6.950;2022-07-23T01:46:08;3.33;;;2.50;;
65187;SDS011;51775;51.148;6.950;2022-07-23T01:48:33;3.13;;;2.17;;
65187;SDS011;51775;51.148;6.950;2022-07-23T01:50:58;3.00;;;2.28;;
65187;SDS011;51775;51.148;6.950;2022-07-23T01:53:24;2.75;;;1.95;;
65187;SDS011;51775;51.148;6.950;2022-07-23T01:55:49;3.00;;;2.28;;
65187;SDS011;51775;51.148;6.950;2022-07-23T01:58:14;2.95;;;2.17;;
65187;SDS011;51775;51.148;6.950;2022-07-23T02:00:40;2.78;;;1.90;;
65187;SDS011;51775;51.148;6.950;2022-07-23T02:03:05;3.35;;;2.33;;
65187;SDS011;51775;51.148;6.950;2022-07-23T02:05:30;2.95;;;2.13;;
65187;SDS011;51775;51.148;6.950;2022-07-23T02:07:56;3.05;;;2.20;;
65187;SDS011;51775;51.148;6.950;2022-07-23T02:10:21;2.85;;;2.15;;
65187;SDS011;51775;51.148;6.950;2022-07-23T02:12:46;3.00;;;2.10;;
65187;SDS011;51775;51.148;6.950;2022-07-23T02:15:12;2.80;;;2.10;;
65187;SDS011;51775;51.148;6.950;2022-07-23T02:17:37;2.72;;;2.00;;
65187;SDS011;51775;51.148;6.950;2022-07-23T02:20:03;2.90;;;2.00;;
65187;SDS011;51775;51.148;6.950;2022-07-23T02:22:28;3.10;;;2.10;;
65187;SDS011;51775;51.148;6.950;2022-07-23T02:24:54;2.47;;;1.77;;
65187;SDS011;51775;51.148;6.950;2022-07-23T02:27:19;2.83;;;1.85;;
65187;SDS011;51775;51.148;6.950;2022-07-23T02:29:44;2.90;;;2.20;;
65187;SDS011;51775;51.148;6.950;2022-07-23T02:32:10;3.03;;;2.05;;
65187;SDS011;51775;51.148;6.950;2022-07-23T02:34:35;2.97;;;2.10;;
65187;SDS011;51775;51.148;6.950;2022-07-23T02:37:00;2.83;;;2.20;;
65187;SDS011;51775;51.148;6.950;2022-07-23T02:39:26;2.88;;;2.10;;
65187;SDS011;51775;51.148;6.950;2022-07-23T02:41:51;2.83;;;1.92;;
65187;SDS011;51775;51.148;6.950;2022-07-23T02:44:16;3.45;;;2.38;;
65187;SDS011;51775;51.148;6.950;2022-07-23T02:46:42;2.70;;;1.98;;
65187;SDS011;51775;51.148;6.950;2022-07-23T02:49:07;2.50;;;1.90;;
65187;SDS011;51775;51.148;6.950;2022-07-23T02:51:32;2.75;;;1.90;;
65187;SDS011;51775;51.148;6.950;2022-07-23T02:53:58;2.92;;;1.88;;
65187;SDS011;51775;51.148;6.950;2022-07-23T02:56:23;2.80;;;1.90;;
65187;SDS011;51775;51.148;6.950;2022-07-23T02:58:48;2.60;;;1.80;;
65187;SDS011;51775;51.148;6.950;2022-07-23T03:01:14;2.45;;;1.80;;
65187;SDS011;51775;51.148;6.950;2022-07-23T03:03:39;2.80;;;2.05;;
65187;SDS011;51775;51.148;6.950;2022-07-23T03:06:04;3.10;;;1.98;;
65187;SDS011;51775;51.148;6.950;2022-07-23T03:08:30;2.40;;;1.60;;
65187;SDS011;51775;51.148;6.950;2022-07-23T03:10:55;2.65;;;1.83;;
65187;SDS011;51775;51.148;6.950;2022-07-23T03:13:21;2.70;;;1.90;;
65187;SDS011;51775;51.148;6.950;2022-07-23T03:15:47;2.42;;;1.83;;
65187;SDS011;51775;51.148;6.950;2022-07-23T03:18:12;2.53;;;1.80;;
65187;SDS011;51775;51.148;6.950;2022-07-23T03:20:37;2.50;;;1.80;;
65187;SDS011;51775;51.148;6.950;2022-07-23T03:23:03;2.88;;;1.90;;
65187;SDS011;51775;51.148;6.950;2022-07-23T03:25:28;2.70;;;1.80;;
65187;SDS011;51775;51.148;6.950;2022-07-23T03:27:53;2.30;;;1.58;;
65187;SDS011;51775;51.148;6.950;2022-07-23T03:30:18;2.20;;;1.55;;
65187;SDS011;51775;51.148;6.950;2022-07-23T03:32:44;2.50;;;1.75;;
65187;SDS011;51775;51.148;6.950;2022-07-23T03:35:09;2.65;;;1.80;;
65187;SDS011;51775;51.148;6.950;2022-07-23T03:37:35;2.33;;;1.60;;
65187;SDS011;51775;51.148;6.950;2022-07-23T03:40:01;2.80;;;1.80;;
65187;SDS011;51775;51.148;6.950;2022-07-23T03:42:26;2.63;;;1.80;;
65187;SDS011;51775;51.148;6.950;2022-07-23T03:44:52;2.30;;;1.67;;
65187;SDS011;51775;51.148;6.950;2022-07-23T03:47:17;2.45;;;1.55;;
65187;SDS011;51775;51.148;6.950;2022-07-23T03:49:43;2.58;;;1.70;;
65187;SDS011;51775;51.148;6.950;2022-07-23T03:52:08;2.45;;;1.70;;
65187;SDS011;51775;51.148;6.950;2022-07-23T03:54:33;2.38;;;1.70;;
65187;SDS011;51775;51.148;6.950;2022-07-23T03:56:58;2.15;;;1.70;;
65187;SDS011;51775;51.148;6.950;2022-07-23T03:59:24;2.17;;;1.50;;
65187;SDS011;51775;51.148;6.950;2022-07-23T04:01:49;2.30;;;1.60;;
65187;SDS011;51775;51.148;6.950;2022-07-23T04:04:15;2.42;;;1.60;;
65187;SDS011;51775;51.148;6.950;2022-07-23T04:06:40;2.22;;;1.48;;
65187;SDS011;51775;51.148;6.950;2022-07-23T04:09:05;2.20;;;1.50;;
65187;SDS011;51775;51.148;6.950;2022-07-23T04:11:31;2.17;;;1.60;;
65187;SDS011;51775;51.148;6.950;2022-07-23T04:13:56;2.50;;;1.70;;
65187;SDS011;51775;51.148;6.950;2022-07-23T04:16:21;2.65;;;1.67;;
65187;SDS011;51775;51.148;6.950;2022-07-23T04:18:46;2.30;;;1.50;;
65187;SDS011;51775;51.148;6.950;2022-07-23T04:21:12;2.13;;;1.48;;
65187;SDS011;51775;51.148;6.950;2022-07-23T04:23:37;2.50;;;1.60;;
65187;SDS011;51775;51.148;6.950;2022-07-23T04:26:02;1.95;;;1.33;;
65187;SDS011;51775;51.148;6.950;2022-07-23T04:28:28;2.50;;;1.50;;
65187;SDS011;51775;51.148;6.950;2022-07-23T04:30:55;2.28;;;1.55;;
65187;SDS011;51775;51.148;6.950;2022-07-23T04:33:22;2.67;;;1.77;;
65187;SDS011;51775;51.148;6.950;2022-07-23T04:35:47;2.05;;;1.40;;
65187;SDS011;51775;51.148;6.950;2022-07-23T04:38:12;2.10;;;1.42;;
65187;SDS011;51775;51.148;6.950;2022-07-23T04:40:38;2.20;;;1.45;;
65187;SDS011;51775;51.148;6.950;2022-07-23T04:45:32;2.15;;;1.42;;
65187;SDS011;51775;51.148;6.950;2022-07-23T04:47:57;1.80;;;1.30;;
65187;SDS011;51775;51.148;6.950;2022-07-23T04:50:23;2.10;;;1.60;;
65187;SDS011;51775;51.148;6.950;2022-07-23T04:52:48;2.10;;;1.50;;
65187;SDS011;51775;51.148;6.950;2022-07-23T04:55:14;2.38;;;1.60;;
65187;SDS011;51775;51.148;6.950;2022-07-23T04:57:40;2.22;;;1.52;;
65187;SDS011;51775;51.148;6.950;2022-07-23T05:00:06;2.10;;;1.50;;
65187;SDS011;51775;51.148;6.950;2022-07-23T05:02:33;1.95;;;1.40;;
65187;SDS011;51775;51.148;6.950;2022-07-23T05:04:58;2.15;;;1.50;;
65187;SDS011;51775;51.148;6.950;2022-07-23T05:07:23;2.08;;;1.50;;
65187;SDS011;51775;51.148;6.950;2022-07-23T05:09:48;2.15;;;1.50;;
65187;SDS011;51775;51.148;6.950;2022-07-23T05:12:14;2.10;;;1.40;;
65187;SDS011;51775;51.148;6.950;2022-07-23T05:14:39;2.30;;;1.55;;
65187;SDS011;51775;51.148;6.950;2022-07-23T05:17:05;2.22;;;1.50;;
65187;SDS011;51775;51.148;6.950;2022-07-23T05:19:30;2.47;;;1.60;;
65187;SDS011;51775;51.148;6.950;2022-07-23T05:21:55;2.20;;;1.50;;
65187;SDS011;51775;51.148;6.950;2022-07-23T05:24:20;2.30;;;1.70;;
65187;SDS011;51775;51.148;6.950;2022-07-23T05:26:46;2.08;;;1.33;;
65187;SDS011;51775;51.148;6.950;2022-07-23T05:29:12;1.92;;;1.40;;
65187;SDS011;51775;51.148;6.950;2022-07-23T05:31:37;2.60;;;1.60;;
65187;SDS011;51775;51.148;6.950;2022-07-23T05:34:03;2.50;;;1.65;;
65187;SDS011;51775;51.148;6.950;2022-07-23T05:36:28;2.28;;;1.60;;
65187;SDS011;51775;51.148;6.950;2022-07-23T05:38:53;2.10;;;1.40;;
65187;SDS011;51775;51.148;6.950;2022-07-23T05:41:19;2.30;;;1.70;;
65187;SDS011;51775;51.148;6.950;2022-07-23T05:43:44;2.13;;;1.50;;
65187;SDS011;51775;51.148;6.950;2022-07-23T05:46:09;2.15;;;1.40;;
65187;SDS011;51775;51.148;6.950;2022-07-23T05:48:34;3.03;;;1.42;;
65187;SDS011;51775;51.148;6.950;2022-07-23T05:51:00;2.45;;;1.50;;
65187;SDS011;51775;51.148;6.950;2022-07-23T05:53:25;2.58;;;1.50;;
65187;SDS011;51775;51.148;6.950;2022-07-23T05:55:50;3.25;;;1.90;;
65187;SDS011;51775;51.148;6.950;2022-07-23T05:58:16;2.50;;;1.60;;
65187;SDS011;51775;51.148;6.950;2022-07-23T06:00:41;2.50;;;1.70;;
65187;SDS011;51775;51.148;6.950;2022-07-23T06:03:06;2.60;;;1.77;;
65187;SDS011;51775;51.148;6.950;2022-07-23T06:05:32;4.10;;;1.70;;
65187;SDS011;51775;51.148;6.950;2022-07-23T06:07:57;2.92;;;1.90;;
65187;SDS011;51775;51.148;6.950;2022-07-23T06:10:22;2.60;;;1.83;;
65187;SDS011;51775;51.148;6.950;2022-07-23T06:12:48;3.08;;;2.03;;
65187;SDS011;51775;51.148;6.950;2022-07-23T06:15:13;2.83;;;1.85;;
65187;SDS011;51775;51.148;6.950;2022-07-23T06:17:38;3.15;;;1.98;;
65187;SDS011;51775;51.148;6.950;2022-07-23T06:20:05;3.35;;;2.00;;
65187;SDS011;51775;51.148;6.950;2022-07-23T06:22:34;3.35;;;2.28;;
65187;SDS011;51775;51.148;6.950;2022-07-23T06:25:00;3.80;;;2.42;;
65187;SDS011;51775;51.148;6.950;2022-07-23T06:27:26;3.70;;;2.40;;
65187;SDS011;51775;51.148;6.950;2022-07-23T06:29:51;3.60;;;2.38;;
65187;SDS011;51775;51.148;6.950;2022-07-23T06:32:16;4.05;;;2.60;;
65187;SDS011;51775;51.148;6.950;2022-07-23T06:34:42;3.90;;;2.55;;
65187;SDS011;51775;51.148;6.950;2022-07-23T06:37:08;3.55;;;2.50;;
65187;SDS011;51775;51.148;6.950;2022-07-23T06:39:33;3.70;;;2.70;;
65187;SDS011;51775;51.148;6.950;2022-07-23T06:41:59;5.30;;;2.47;;
65187;SDS011;51775;51.148;6.950;2022-07-23T06:44:24;4.10;;;2.70;;
65187;SDS011;51775;51.148;6.950;2022-07-23T06:46:49;3.95;;;2.60;;
65187;SDS011;51775;51.148;6.950;2022-07-23T06:49:15;4.00;;;2.47;;
65187;SDS011;51775;51.148;6.950;2022-07-23T06:51:40;5.25;;;3.00;;
65187;SDS011;51775;51.148;6.950;2022-07-23T06:54:05;5.20;;;2.47;;
65187;SDS011;51775;51.148;6.950;2022-07-23T06:56:30;3.72;;;2.30;;
65187;SDS011;51775;51.148;6.950;2022-07-23T06:58:56;4.82;;;2.70;;
65187;SDS011;51775;51.148;6.950;2022-07-23T07:01:21;5.80;;;2.67;;
65187;SDS011;51775;51.148;6.950;2022-07-23T07:03:47;4.85;;;2.35;;
65187;SDS011;51775;51.148;6.950;2022-07-23T07:06:12;3.50;;;2.40;;
65187;SDS011;51775;51.148;6.950;2022-07-23T07:08:38;3.80;;;2.58;;
65187;SDS011;51775;51.148;6.950;2022-07-23T07:11:03;3.88;;;2.50;;
65187;SDS011;51775;51.148;6.950;2022-07-23T07:13:29;4.15;;;2.30;;
65187;SDS011;51775;51.148;6.950;2022-07-23T07:15:54;5.30;;;2.42;;
65187;SDS011;51775;51.148;6.950;2022-07-23T07:18:20;4.63;;;2.40;;
65187;SDS011;51775;51.148;6.950;2022-07-23T07:20:46;3.92;;;2.25;;
65187;SDS011;51775;51.148;6.950;2022-07-23T07:23:11;3.28;;;2.33;;
65187;SDS011;51775;51.148;6.950;2022-07-23T07:25:37;4.30;;;2.30;;
65187;SDS011;51775;51.148;6.950;2022-07-23T07:28:02;3.78;;;2.33;;
65187;SDS011;51775;51.148;6.950;2022-07-23T07:30:28;3.90;;;2.20;;
65187;SDS011;51775;51.148;6.950;2022-07-23T07:32:53;5.00;;;2.13;;
65187;SDS011;51775;51.148;6.950;2022-07-23T07:35:18;3.53;;;2.10;;
65187;SDS011;51775;51.148;6.950;2022-07-23T07:37:44;4.65;;;2.22;;
65187;SDS011;51775;51.148;6.950;2022-07-23T07:40:09;4.25;;;2.33;;
65187;SDS011;51775;51.148;6.950;2022-07-23T07:42:35;3.83;;;2.50;;
65187;SDS011;51775;51.148;6.950;2022-07-23T07:45:09;5.13;;;2.30;;
65187;SDS011;51775;51.148;6.950;2022-07-23T07:47:35;4.75;;;2.30;;
65187;SDS011;51775;51.148;6.950;2022-07-23T07:50:00;4.10;;;2.42;;
65187;SDS011;51775;51.148;6.950;2022-07-23T07:52:25;3.97;;;2.30;;
65187;SDS011;51775;51.148;6.950;2022-07-23T07:54:52;3.25;;;2.20;;
65187;SDS011;51775;51.148;6.950;2022-07-23T07:57:17;4.00;;;2.47;;
65187;SDS011;51775;51.148;6.950;2022-07-23T07:59:42;3.35;;;1.92;;
65187;SDS011;51775;51.148;6.950;2022-07-23T08:02:08;3.50;;;2.13;;
65187;SDS011;51775;51.148;6.950;2022-07-23T08:04:34;3.30;;;2.20;;
65187;SDS011;51775;51.148;6.950;2022-07-23T08:06:59;3.92;;;2.05;;
65187;SDS011;51775;51.148;6.950;2022-07-23T08:09:25;3.72;;;2.10;;
65187;SDS011;51775;51.148;6.950;2022-07-23T08:11:51;4.40;;;2.35;;
65187;SDS011;51775;51.148;6.950;2022-07-23T08:14:17;2.95;;;2.10;;
65187;SDS011;51775;51.148;6.950;2022-07-23T08:16:43;3.70;;;2.20;;
65187;SDS011;51775;51.148;6.950;2022-07-23T08:19:09;3.67;;;2.20;;
65187;SDS011;51775;51.148;6.950;2022-07-23T08:21:38;3.40;;;2.22;;
65187;SDS011;51775;51.148;6.950;2022-07-23T08:24:04;3.30;;;2.08;;
65187;SDS011;51775;51.148;6.950;2022-07-23T08:26:29;3.00;;;1.98;;
65187;SDS011;51775;51.148;6.950;2022-07-23T08:28:54;3.78;;;2.20;;
65187;SDS011;51775;51.148;6.950;2022-07-23T08:31:20;3.20;;;1.77;;
65187;SDS011;51775;51.148;6.950;2022-07-23T08:33:46;3.83;;;2.10;;
65187;SDS011;51775;51.148;6.950;2022-07-23T08:36:12;2.80;;;2.00;;
65187;SDS011;51775;51.148;6.950;2022-07-23T08:38:37;3.70;;;1.98;;
65187;SDS011;51775;51.148;6.950;2022-07-23T08:41:02;3.10;;;2.00;;
65187;SDS011;51775;51.148;6.950;2022-07-23T08:43:29;2.83;;;2.10;;
65187;SDS011;51775;51.148;6.950;2022-07-23T08:45:57;2.78;;;1.98;;
65187;SDS011;51775;51.148;6.950;2022-07-23T08:48:25;3.13;;;2.22;;
65187;SDS011;51775;51.148;6.950;2022-07-23T08:50:53;3.15;;;2.20;;
65187;SDS011;51775;51.148;6.950;2022-07-23T08:53:20;2.88;;;2.10;;
65187;SDS011;51775;51.148;6.950;2022-07-23T08:55:48;3.83;;;2.28;;
65187;SDS011;51775;51.148;6.950;2022-07-23T08:58:15;2.95;;;2.20;;
65187;SDS011;51775;51.148;6.950;2022-07-23T09:00:41;3.28;;;2.33;;
65187;SDS011;51775;51.148;6.950;2022-07-23T09:03:07;3.22;;;2.60;;
65187;SDS011;51775;51.148;6.950;2022-07-23T09:05:37;3.90;;;2.53;;
65187;SDS011;51775;51.148;6.950;2022-07-23T09:11:08;4.55;;;3.17;;
65187;SDS011;51775;51.148;6.950;2022-07-23T09:13:42;3.65;;;2.83;;
65187;SDS011;51775;51.148;6.950;2022-07-23T09:16:13;4.70;;;2.85;;
65187;SDS011;51775;51.148;6.950;2022-07-23T09:18:50;3.78;;;2.95;;
65187;SDS011;51775;51.148;6.950;2022-07-23T09:23:54;3.58;;;2.85;;
65187;SDS011;51775;51.148;6.950;2022-07-23T09:29:12;3.67;;;2.70;;
65187;SDS011;51775;51.148;6.950;2022-07-23T09:39:28;4.03;;;3.00;;
65187;SDS011;51775;51.148;6.950;2022-07-23T09:41:59;4.35;;;3.05;;
65187;SDS011;51775;51.148;6.950;2022-07-23T09:44:48;3.58;;;2.97;;
65187;SDS011;51775;51.148;6.950;2022-07-23T09:47:18;3.97;;;3.10;;
65187;SDS011;51775;51.148;6.950;2022-07-23T09:52:43;3.30;;;2.83;;
65187;SDS011;51775;51.148;6.950;2022-07-23T09:55:09;3.88;;;3.20;;
65187;SDS011;51775;51.148;6.950;2022-07-23T09:57:35;3.75;;;3.05;;
65187;SDS011;51775;51.148;6.950;2022-07-23T10:00:02;4.53;;;3.20;;
65187;SDS011;51775;51.148;6.950;2022-07-23T10:02:32;4.10;;;3.10;;
65187;SDS011;51775;51.148;6.950;2022-07-23T10:04:58;4.50;;;3.53;;
65187;SDS011;51775;51.148;6.950;2022-07-23T10:07:26;3.60;;;3.03;;
65187;SDS011;51775;51.148;6.950;2022-07-23T10:09:51;4.10;;;3.22;;
65187;SDS011;51775;51.148;6.950;2022-07-23T10:12:18;4.18;;;3.20;;
65187;SDS011;51775;51.148;6.950;2022-07-23T10:14:44;4.65;;;2.97;;
65187;SDS011;51775;51.148;6.950;2022-07-23T10:17:09;4.00;;;2.92;;
65187;SDS011;51775;51.148;6.950;2022-07-23T10:19:35;3.45;;;2.92;;
65187;SDS011;51775;51.148;6.950;2022-07-23T10:22:05;3.50;;;2.90;;
65187;SDS011;51775;51.148;6.950;2022-07-23T10:36:22;4.43;;;3.05;;
65187;SDS011;51775;51.148;6.950;2022-07-23T10:38:57;4.55;;;3.33;;
65187;SDS011;51775;51.148;6.950;2022-07-23T10:41:35;4.15;;;3.20;;
65187;SDS011;51775;51.148;6.950;2022-07-23T10:44:06;3.60;;;2.63;;
65187;SDS011;51775;51.148;6.950;2022-07-23T10:46:35;3.00;;;2.55;;
65187;SDS011;51775;51.148;6.950;2022-07-23T10:57:09;4.00;;;2.90;;
65187;SDS011;51775;51.148;6.950;2022-07-23T11:02:26;3.53;;;2.83;;
65187;SDS011;51775;51.148;6.950;2022-07-23T11:04:58;3.83;;;2.88;;
65187;SDS011;51775;51.148;6.950;2022-07-23T11:07:25;3.50;;;2.70;;
65187;SDS011;51775;51.148;6.950;2022-07-23T11:09:51;3.50;;;2.90;;
65187;SDS011;51775;51.148;6.950;2022-07-23T11:17:33;3.47;;;2.50;;
65187;SDS011;51775;51.148;6.950;2022-07-23T11:25:10;3.25;;;2.70;;
65187;SDS011;51775;51.148;6.950;2022-07-23T11:27:37;3.72;;;2.95;;
65187;SDS011;51775;51.148;6.950;2022-07-23T11:30:10;3.40;;;2.70;;
65187;SDS011;51775;51.148;6.950;2022-07-23T11:35:38;3.80;;;2.92;;
65187;SDS011;51775;51.148;6.950;2022-07-23T11:38:07;4.25;;;3.10;;
65187;SDS011;51775;51.148;6.950;2022-07-23T11:40:37;4.93;;;2.92;;
65187;SDS011;51775;51.148;6.950;2022-07-23T11:43:05;4.65;;;2.97;;
65187;SDS011;51775;51.148;6.950;2022-07-23T11:45:36;4.82;;;3.15;;
65187;SDS011;51775;51.148;6.950;2022-07-23T11:48:05;3.75;;;3.00;;
65187;SDS011;51775;51.148;6.950;2022-07-23T11:50:33;3.90;;;3.00;;
65187;SDS011;51775;51.148;6.950;2022-07-23T11:52:58;3.67;;;3.10;;
65187;SDS011;51775;51.148;6.950;2022-07-23T11:55:24;4.53;;;3.03;;
65187;SDS011;51775;51.148;6.950;2022-07-23T11:57:50;3.50;;;2.90;;
65187;SDS011;51775;51.148;6.950;2022-07-23T12:00:18;4.20;;;3.10;;
65187;SDS011;51775;51.148;6.950;2022-07-23T12:02:51;4.25;;;2.63;;
65187;SDS011;51775;51.148;6.950;2022-07-23T12:07:49;3.42;;;2.75;;
65187;SDS011;51775;51.148;6.950;2022-07-23T12:10:23;3.65;;;3.00;;
65187;SDS011;51775;51.148;6.950;2022-07-23T12:12:52;3.65;;;2.67;;
65187;SDS011;51775;51.148;6.950;2022-07-23T12:17:52;4.30;;;2.80;;
65187;SDS011;51775;51.148;6.950;2022-07-23T12:20:20;4.20;;;3.10;;
65187;SDS011;51775;51.148;6.950;2022-07-23T12:22:49;3.80;;;2.90;;
65187;SDS011;51775;51.148;6.950;2022-07-23T12:25:21;3.38;;;2.63;;
65187;SDS011;51775;51.148;6.950;2022-07-23T12:28:01;3.90;;;2.88;;
65187;SDS011;51775;51.148;6.950;2022-07-23T12:30:32;3.65;;;2.83;;
65187;SDS011;51775;51.148;6.950;2022-07-23T12:32:58;4.03;;;2.72;;
65187;SDS011;51775;51.148;6.950;2022-07-23T12:35:29;4.88;;;2.80;;
65187;SDS011;51775;51.148;6.950;2022-07-23T12:38:07;3.50;;;2.72;;
65187;SDS011;51775;51.148;6.950;2022-07-23T12:40:47;3.72;;;2.90;;
65187;SDS011;51775;51.148;6.950;2022-07-23T12:45:49;3.85;;;2.90;;
65187;SDS011;51775;51.148;6.950;2022-07-23T12:48:29;3.70;;;2.83;;
65187;SDS011;51775;51.148;6.950;2022-07-23T12:51:18;3.83;;;2.88;;
65187;SDS011;51775;51.148;6.950;2022-07-23T12:53:52;3.78;;;2.72;;
65187;SDS011;51775;51.148;6.950;2022-07-23T12:56:31;5.10;;;3.00;;
65187;SDS011;51775;51.148;6.950;2022-07-23T12:59:03;4.28;;;2.85;;
65187;SDS011;51775;51.148;6.950;2022-07-23T13:01:32;4.60;;;3.00;;
65187;SDS011;51775;51.148;6.950;2022-07-23T13:04:01;3.80;;;2.78;;
65187;SDS011;51775;51.148;6.950;2022-07-23T13:06:34;5.03;;;2.80;;
65187;SDS011;51775;51.148;6.950;2022-07-23T13:09:04;4.00;;;3.05;;
65187;SDS011;51775;51.148;6.950;2022-07-23T13:11:38;4.47;;;2.70;;
65187;SDS011;51775;51.148;6.950;2022-07-23T13:14:04;4.22;;;2.47;;
65187;SDS011;51775;51.148;6.950;2022-07-23T13:16:35;3.70;;;2.83;;
65187;SDS011;51775;51.148;6.950;2022-07-23T13:19:02;4.97;;;2.80;;
65187;SDS011;51775;51.148;6.950;2022-07-23T13:21:29;4.20;;;2.65;;
65187;SDS011;51775;51.148;6.950;2022-07-23T13:23:55;3.17;;;2.47;;
65187;SDS011;51775;51.148;6.950;2022-07-23T13:26:21;3.58;;;2.53;;
65187;SDS011;51775;51.148;6.950;2022-07-23T13:28:46;3.75;;;2.67;;
65187;SDS011;51775;51.148;6.950;2022-07-23T13:31:12;3.17;;;2.60;;
65187;SDS011;51775;51.148;6.950;2022-07-23T13:33:38;4.25;;;2.50;;
65187;SDS011;51775;51.148;6.950;2022-07-23T13:36:03;3.22;;;2.40;;
65187;SDS011;51775;51.148;6.950;2022-07-23T13:38:29;3.17;;;2.35;;
65187;SDS011;51775;51.148;6.950;2022-07-23T13:40:54;4.57;;;2.70;;
65187;SDS011;51775;51.148;6.950;2022-07-23T13:43:20;3.88;;;2.80;;
65187;SDS011;51775;51.148;6.950;2022-07-23T13:45:48;3.90;;;2.60;;
65187;SDS011;51775;51.148;6.950;2022-07-23T13:48:14;3.15;;;2.50;;
65187;SDS011;51775;51.148;6.950;2022-07-23T13:50:40;3.13;;;2.33;;
65187;SDS011;51775;51.148;6.950;2022-07-23T13:53:07;3.90;;;2.67;;
65187;SDS011;51775;51.148;6.950;2022-07-23T13:55:34;3.20;;;2.40;;
65187;SDS011;51775;51.148;6.950;2022-07-23T13:58:00;3.60;;;2.60;;
65187;SDS011;51775;51.148;6.950;2022-07-23T14:00:26;3.20;;;2.38;;
65187;SDS011;51775;51.148;6.950;2022-07-23T14:02:52;3.30;;;2.40;;
65187;SDS011;51775;51.148;6.950;2022-07-23T14:05:18;3.58;;;2.35;;
65187;SDS011;51775;51.148;6.950;2022-07-23T14:07:44;3.60;;;2.40;;
65187;SDS011;51775;51.148;6.950;2022-07-23T14:10:10;3.90;;;2.25;;
65187;SDS011;51775;51.148;6.950;2022-07-23T14:12:36;2.75;;;2.20;;
65187;SDS011;51775;51.148;6.950;2022-07-23T14:15:02;3.30;;;2.47;;
65187;SDS011;51775;51.148;6.950;2022-07-23T14:17:29;2.90;;;2.30;;
65187;SDS011;51775;51.148;6.950;2022-07-23T14:19:57;2.92;;;2.17;;
65187;SDS011;51775;51.148;6.950;2022-07-23T14:22:22;2.90;;;2.33;;
65187;SDS011;51775;51.148;6.950;2022-07-23T14:24:48;3.35;;;2.47;;
65187;SDS011;51775;51.148;6.950;2022-07-23T14:27:13;3.20;;;2.40;;
65187;SDS011;51775;51.148;6.950;2022-07-23T14:29:38;2.90;;;2.35;;
65187;SDS011;51775;51.148;6.950;2022-07-23T14:32:15;2.70;;;2.30;;
65187;SDS011;51775;51.148;6.950;2022-07-23T14:34:40;3.90;;;2.42;;
65187;SDS011;51775;51.148;6.950;2022-07-23T14:37:05;3.70;;;2.30;;
65187;SDS011;51775;51.148;6.950;2022-07-23T14:39:31;3.10;;;2.30;;
65187;SDS011;51775;51.148;6.950;2022-07-23T14:41:56;3.10;;;2.33;;
65187;SDS011;51775;51.148;6.950;2022-07-23T14:44:21;2.95;;;2.17;;
65187;SDS011;51775;51.148;6.950;2022-07-23T14:46:47;3.03;;;2.28;;
65187;SDS011;51775;51.148;6.950;2022-07-23T14:49:12;2.90;;;2.30;;
65187;SDS011;51775;51.148;6.950;2022-07-23T14:51:38;3.17;;;2.40;;
65187;SDS011;51775;51.148;6.950;2022-07-23T14:54:04;3.60;;;2.33;;
65187;SDS011;51775;51.148;6.950;2022-07-23T14:56:30;3.97;;;2.30;;
65187;SDS011;51775;51.148;6.950;2022-07-23T14:58:57;3.00;;;2.38;;
65187;SDS011;51775;51.148;6.950;2022-07-23T15:01:22;4.70;;;2.30;;
65187;SDS011;51775;51.148;6.950;2022-07-23T15:03:48;4.53;;;2.70;;
65187;SDS011;51775;51.148;6.950;2022-07-23T15:06:15;5.47;;;2.50;;
65187;SDS011;51775;51.148;6.950;2022-07-23T15:08:40;4.13;;;2.40;;
65187;SDS011;51775;51.148;6.950;2022-07-23T15:11:06;6.70;;;2.50;;
65187;SDS011;51775;51.148;6.950;2022-07-23T15:13:31;4.93;;;2.50;;
65187;SDS011;51775;51.148;6.950;2022-07-23T15:16:04;4.40;;;2.38;;
65187;SDS011;51775;51.148;6.950;2022-07-23T15:18:30;3.47;;;2.40;;
65187;SDS011;51775;51.148;6.950;2022-07-23T15:20:56;4.10;;;2.60;;
65187;SDS011;51775;51.148;6.950;2022-07-23T15:23:22;4.28;;;2.40;;
65187;SDS011;51775;51.148;6.950;2022-07-23T15:25:58;4.50;;;2.50;;
65187;SDS011;51775;51.148;6.950;2022-07-23T15:28:23;5.13;;;2.20;;
65187;SDS011;51775;51.148;6.950;2022-07-23T15:30:49;4.30;;;2.63;;
65187;SDS011;51775;51.148;6.950;2022-07-23T15:33:15;6.70;;;2.60;;
65187;SDS011;51775;51.148;6.950;2022-07-23T15:35:41;3.88;;;2.55;;
65187;SDS011;51775;51.148;6.950;2022-07-23T15:38:06;3.78;;;2.40;;
65187;SDS011;51775;51.148;6.950;2022-07-23T15:40:33;5.70;;;2.60;;
65187;SDS011;51775;51.148;6.950;2022-07-23T15:43:01;4.20;;;2.30;;
65187;SDS011;51775;51.148;6.950;2022-07-23T15:45:26;7.45;;;2.40;;
65187;SDS011;51775;51.148;6.950;2022-07-23T15:47:51;4.28;;;2.60;;
65187;SDS011;51775;51.148;6.950;2022-07-23T15:50:17;8.13;;;2.63;;